sensor_id;sensor_type;location;lat;lon;timestamp;P1;durP1;ratioP1;P2;durP2;ratioP2
60088;SDS011;45961;53.574;55.878;2023-02-01T00:00:39;4.22;;;2.70;;
60088;SDS011;45961;53.574;55.878;2023-02-01T00:02:41;8.50;;;3.23;;
60088;SDS011;45961;53.574;55.878;2023-02-01T00:03:42;8.77;;;3.35;;
60088;SDS011;45961;53.574;55.878;2023-02-01T00:04:43;8.45;;;3.53;;
60088;SDS011;45961;53.574;55.878;2023-02-01T00:05:44;6.35;;;2.92;;
60088;SDS011;45961;53.574;55.878;2023-02-01T00:06:45;6.28;;;3.20;;
60088;SDS011;45961;53.574;55.878;2023-02-01T00:07:46;8.57;;;3.40;;
60088;SDS011;45961;53.574;55.878;2023-02-01T00:08:51;5.68;;;2.67;;
60088;SDS011;45961;53.574;55.878;2023-02-01T00:09:53;7.97;;;3.53;;
60088;SDS011;45961;53.574;55.878;2023-02-01T00:11:01;7.50;;;4.07;;
60088;SDS011;45961;53.574;55.878;2023-02-01T00:12:07;8.60;;;3.67;;
60088;SDS011;45961;53.574;55.878;2023-02-01T00:14:09;4.57;;;2.50;;
60088;SDS011;45961;53.574;55.878;2023-02-01T00:15:10;6.47;;;3.05;;
60088;SDS011;45961;53.574;55.878;2023-02-01T00:16:12;4.45;;;2.88;;
60088;SDS011;45961;53.574;55.878;2023-02-01T00:17:18;6.90;;;3.33;;
60088;SDS011;45961;53.574;55.878;2023-02-01T00:18:21;6.68;;;3.42;;
60088;SDS011;45961;53.574;55.878;2023-02-01T00:19:25;6.53;;;3.40;;
60088;SDS011;45961;53.574;55.878;2023-02-01T00:20:26;7.97;;;4.03;;
60088;SDS011;45961;53.574;55.878;2023-02-01T00:21:28;5.95;;;2.67;;
60088;SDS011;45961;53.574;55.878;2023-02-01T00:22:30;8.98;;;3.38;;
60088;SDS011;45961;53.574;55.878;2023-02-01T00:23:32;7.30;;;3.13;;
60088;SDS011;45961;53.574;55.878;2023-02-01T00:24:33;5.93;;;3.65;;
60088;SDS011;45961;53.574;55.878;2023-02-01T00:25:34;6.25;;;3.72;;
60088;SDS011;45961;53.574;55.878;2023-02-01T00:26:36;5.10;;;2.55;;
60088;SDS011;45961;53.574;55.878;2023-02-01T00:27:37;8.20;;;3.55;;
60088;SDS011;45961;53.574;55.878;2023-02-01T00:28:38;6.32;;;3.35;;
60088;SDS011;45961;53.574;55.878;2023-02-01T00:29:39;7.78;;;3.78;;
60088;SDS011;45961;53.574;55.878;2023-02-01T00:30:40;8.32;;;3.13;;
60088;SDS011;45961;53.574;55.878;2023-02-01T00:31:41;6.90;;;3.17;;
60088;SDS011;45961;53.574;55.878;2023-02-01T00:32:43;4.60;;;2.65;;
60088;SDS011;45961;53.574;55.878;2023-02-01T00:33:46;5.90;;;2.88;;
60088;SDS011;45961;53.574;55.878;2023-02-01T00:34:49;8.10;;;3.97;;
60088;SDS011;45961;53.574;55.878;2023-02-01T00:35:50;9.48;;;3.53;;
60088;SDS011;45961;53.574;55.878;2023-02-01T00:36:51;6.78;;;3.38;;
60088;SDS011;45961;53.574;55.878;2023-02-01T00:37:52;4.40;;;2.80;;
60088;SDS011;45961;53.574;55.878;2023-02-01T00:38:53;8.55;;;3.35;;
60088;SDS011;45961;53.574;55.878;2023-02-01T00:39:54;6.78;;;3.45;;
60088;SDS011;45961;53.574;55.878;2023-02-01T00:41:02;6.50;;;3.10;;
60088;SDS011;45961;53.574;55.878;2023-02-01T00:42:08;6.80;;;4.35;;
60088;SDS011;45961;53.574;55.878;2023-02-01T00:43:09;7.10;;;3.60;;
60088;SDS011;45961;53.574;55.878;2023-02-01T00:44:09;5.03;;;3.15;;
60088;SDS011;45961;53.574;55.878;2023-02-01T00:45:11;7.38;;;3.55;;
60088;SDS011;45961;53.574;55.878;2023-02-01T00:46:12;9.57;;;3.28;;
60088;SDS011;45961;53.574;55.878;2023-02-01T00:47:14;5.78;;;2.97;;
60088;SDS011;45961;53.574;55.878;2023-02-01T00:48:15;5.97;;;3.80;;
60088;SDS011;45961;53.574;55.878;2023-02-01T00:49:16;7.45;;;3.30;;
60088;SDS011;45961;53.574;55.878;2023-02-01T00:50:17;6.28;;;3.67;;
60088;SDS011;45961;53.574;55.878;2023-02-01T00:51:20;7.60;;;3.65;;
60088;SDS011;45961;53.574;55.878;2023-02-01T00:52:23;8.52;;;3.60;;
60088;SDS011;45961;53.574;55.878;2023-02-01T00:53:24;8.68;;;3.22;;
60088;SDS011;45961;53.574;55.878;2023-02-01T00:54:25;6.97;;;3.22;;
60088;SDS011;45961;53.574;55.878;2023-02-01T00:55:26;7.40;;;2.90;;
60088;SDS011;45961;53.574;55.878;2023-02-01T00:56:27;6.88;;;3.17;;
60088;SDS011;45961;53.574;55.878;2023-02-01T00:57:28;6.63;;;3.58;;
60088;SDS011;45961;53.574;55.878;2023-02-01T00:58:29;6.40;;;3.40;;
60088;SDS011;45961;53.574;55.878;2023-02-01T00:59:30;6.60;;;3.30;;
60088;SDS011;45961;53.574;55.878;2023-02-01T01:00:31;6.57;;;2.92;;
60088;SDS011;45961;53.574;55.878;2023-02-01T01:01:32;7.05;;;3.78;;
60088;SDS011;45961;53.574;55.878;2023-02-01T01:03:36;6.27;;;3.33;;
60088;SDS011;45961;53.574;55.878;2023-02-01T01:04:39;6.45;;;3.38;;
60088;SDS011;45961;53.574;55.878;2023-02-01T01:05:41;6.07;;;3.08;;
60088;SDS011;45961;53.574;55.878;2023-02-01T01:06:41;4.93;;;3.05;;
60088;SDS011;45961;53.574;55.878;2023-02-01T01:07:42;6.88;;;3.42;;
60088;SDS011;45961;53.574;55.878;2023-02-01T01:08:43;4.95;;;3.08;;
60088;SDS011;45961;53.574;55.878;2023-02-01T01:09:44;7.63;;;3.08;;
60088;SDS011;45961;53.574;55.878;2023-02-01T01:10:45;10.23;;;3.60;;
60088;SDS011;45961;53.574;55.878;2023-02-01T01:11:46;7.63;;;3.35;;
60088;SDS011;45961;53.574;55.878;2023-02-01T01:12:47;7.63;;;3.50;;
60088;SDS011;45961;53.574;55.878;2023-02-01T01:13:49;8.48;;;3.03;;
60088;SDS011;45961;53.574;55.878;2023-02-01T01:14:51;6.45;;;3.40;;
60088;SDS011;45961;53.574;55.878;2023-02-01T01:15:52;6.07;;;3.72;;
60088;SDS011;45961;53.574;55.878;2023-02-01T01:16:53;8.00;;;3.22;;
60088;SDS011;45961;53.574;55.878;2023-02-01T01:17:54;6.57;;;3.97;;
60088;SDS011;45961;53.574;55.878;2023-02-01T01:18:55;8.38;;;3.40;;
60088;SDS011;45961;53.574;55.878;2023-02-01T01:19:57;6.57;;;2.95;;
60088;SDS011;45961;53.574;55.878;2023-02-01T01:20:58;6.32;;;2.85;;
60088;SDS011;45961;53.574;55.878;2023-02-01T01:21:59;9.82;;;4.22;;
60088;SDS011;45961;53.574;55.878;2023-02-01T01:23:00;8.55;;;3.95;;
60088;SDS011;45961;53.574;55.878;2023-02-01T01:24:01;5.75;;;3.25;;
60088;SDS011;45961;53.574;55.878;2023-02-01T01:25:02;6.53;;;3.25;;
60088;SDS011;45961;53.574;55.878;2023-02-01T01:27:08;7.03;;;2.95;;
60088;SDS011;45961;53.574;55.878;2023-02-01T01:28:09;6.20;;;2.78;;
60088;SDS011;45961;53.574;55.878;2023-02-01T01:29:10;8.98;;;3.92;;
60088;SDS011;45961;53.574;55.878;2023-02-01T01:30:11;8.10;;;3.00;;
60088;SDS011;45961;53.574;55.878;2023-02-01T01:31:14;7.03;;;3.45;;
60088;SDS011;45961;53.574;55.878;2023-02-01T01:32:16;6.30;;;2.95;;
60088;SDS011;45961;53.574;55.878;2023-02-01T01:33:18;8.93;;;3.35;;
60088;SDS011;45961;53.574;55.878;2023-02-01T01:34:19;10.15;;;4.88;;
60088;SDS011;45961;53.574;55.878;2023-02-01T01:35:20;6.72;;;3.13;;
60088;SDS011;45961;53.574;55.878;2023-02-01T01:36:21;5.05;;;3.40;;
60088;SDS011;45961;53.574;55.878;2023-02-01T01:38:23;3.97;;;2.53;;
60088;SDS011;45961;53.574;55.878;2023-02-01T01:40:25;8.57;;;3.67;;
60088;SDS011;45961;53.574;55.878;2023-02-01T01:41:31;4.78;;;2.88;;
60088;SDS011;45961;53.574;55.878;2023-02-01T01:42:39;9.13;;;3.28;;
60088;SDS011;45961;53.574;55.878;2023-02-01T01:43:53;5.60;;;2.88;;
60088;SDS011;45961;53.574;55.878;2023-02-01T01:46:04;5.55;;;3.30;;
60088;SDS011;45961;53.574;55.878;2023-02-01T01:47:05;5.05;;;2.53;;
60088;SDS011;45961;53.574;55.878;2023-02-01T01:48:11;5.53;;;3.30;;
60088;SDS011;45961;53.574;55.878;2023-02-01T01:49:22;5.40;;;3.30;;
60088;SDS011;45961;53.574;55.878;2023-02-01T01:50:27;7.65;;;3.67;;
60088;SDS011;45961;53.574;55.878;2023-02-01T01:51:32;6.03;;;3.05;;
60088;SDS011;45961;53.574;55.878;2023-02-01T01:52:38;7.30;;;3.53;;
60088;SDS011;45961;53.574;55.878;2023-02-01T01:53:43;6.47;;;3.13;;
60088;SDS011;45961;53.574;55.878;2023-02-01T01:54:51;4.97;;;2.97;;
60088;SDS011;45961;53.574;55.878;2023-02-01T01:55:53;8.65;;;3.28;;
60088;SDS011;45961;53.574;55.878;2023-02-01T01:56:57;5.47;;;3.05;;
60088;SDS011;45961;53.574;55.878;2023-02-01T01:58:04;7.85;;;4.32;;
60088;SDS011;45961;53.574;55.878;2023-02-01T01:59:08;5.25;;;3.50;;
60088;SDS011;45961;53.574;55.878;2023-02-01T02:00:14;8.63;;;3.65;;
60088;SDS011;45961;53.574;55.878;2023-02-01T02:01:18;5.57;;;2.83;;
60088;SDS011;45961;53.574;55.878;2023-02-01T02:02:19;4.68;;;3.03;;
60088;SDS011;45961;53.574;55.878;2023-02-01T02:04:24;9.57;;;3.25;;
60088;SDS011;45961;53.574;55.878;2023-02-01T02:05:25;7.55;;;3.00;;
60088;SDS011;45961;53.574;55.878;2023-02-01T02:06:31;6.57;;;3.50;;
60088;SDS011;45961;53.574;55.878;2023-02-01T02:07:41;5.85;;;3.30;;
60088;SDS011;45961;53.574;55.878;2023-02-01T02:08:45;6.72;;;3.53;;
60088;SDS011;45961;53.574;55.878;2023-02-01T02:10:48;6.33;;;3.13;;
60088;SDS011;45961;53.574;55.878;2023-02-01T02:12:01;7.55;;;3.60;;
60088;SDS011;45961;53.574;55.878;2023-02-01T02:13:02;5.93;;;3.70;;
60088;SDS011;45961;53.574;55.878;2023-02-01T02:14:03;7.47;;;3.75;;
60088;SDS011;45961;53.574;55.878;2023-02-01T02:15:09;6.72;;;3.60;;
60088;SDS011;45961;53.574;55.878;2023-02-01T02:26:07;9.18;;;3.28;;
60088;SDS011;45961;53.574;55.878;2023-02-01T02:30:40;6.63;;;3.85;;
60088;SDS011;45961;53.574;55.878;2023-02-01T02:31:48;5.88;;;2.92;;
60088;SDS011;45961;53.574;55.878;2023-02-01T02:35:26;10.57;;;3.75;;
60088;SDS011;45961;53.574;55.878;2023-02-01T02:36:37;12.25;;;4.43;;
60088;SDS011;45961;53.574;55.878;2023-02-01T02:37:53;7.93;;;3.80;;
60088;SDS011;45961;53.574;55.878;2023-02-01T02:39:21;8.48;;;3.78;;
60088;SDS011;45961;53.574;55.878;2023-02-01T02:40:52;8.68;;;4.00;;
60088;SDS011;45961;53.574;55.878;2023-02-01T02:42:48;8.27;;;3.60;;
60088;SDS011;45961;53.574;55.878;2023-02-01T02:44:20;7.65;;;3.47;;
60088;SDS011;45961;53.574;55.878;2023-02-01T02:45:51;8.25;;;3.75;;
60088;SDS011;45961;53.574;55.878;2023-02-01T02:47:25;4.35;;;3.30;;
60088;SDS011;45961;53.574;55.878;2023-02-01T02:51:32;6.72;;;4.03;;
60088;SDS011;45961;53.574;55.878;2023-02-01T02:53:12;7.35;;;3.85;;
60088;SDS011;45961;53.574;55.878;2023-02-01T02:54:36;7.03;;;3.28;;
60088;SDS011;45961;53.574;55.878;2023-02-01T02:55:53;10.80;;;4.68;;
60088;SDS011;45961;53.574;55.878;2023-02-01T02:57:16;7.78;;;4.07;;
60088;SDS011;45961;53.574;55.878;2023-02-01T02:58:58;7.95;;;4.13;;
60088;SDS011;45961;53.574;55.878;2023-02-01T03:00:19;6.53;;;4.07;;
60088;SDS011;45961;53.574;55.878;2023-02-01T03:01:43;8.27;;;4.75;;
60088;SDS011;45961;53.574;55.878;2023-02-01T03:03:03;6.68;;;3.67;;
60088;SDS011;45961;53.574;55.878;2023-02-01T03:04:27;8.77;;;4.75;;
60088;SDS011;45961;53.574;55.878;2023-02-01T03:05:32;10.73;;;5.72;;
60088;SDS011;45961;53.574;55.878;2023-02-01T03:06:35;7.07;;;3.83;;
60088;SDS011;45961;53.574;55.878;2023-02-01T03:08:57;9.73;;;5.40;;
60088;SDS011;45961;53.574;55.878;2023-02-01T03:10:04;9.18;;;4.60;;
60088;SDS011;45961;53.574;55.878;2023-02-01T03:11:09;8.60;;;4.35;;
60088;SDS011;45961;53.574;55.878;2023-02-01T03:12:12;9.75;;;5.43;;
60088;SDS011;45961;53.574;55.878;2023-02-01T03:14:48;9.07;;;5.28;;
60088;SDS011;45961;53.574;55.878;2023-02-01T03:17:08;9.88;;;4.85;;
60088;SDS011;45961;53.574;55.878;2023-02-01T03:18:26;10.07;;;6.35;;
60088;SDS011;45961;53.574;55.878;2023-02-01T03:19:43;9.43;;;5.00;;
60088;SDS011;45961;53.574;55.878;2023-02-01T03:20:50;6.97;;;4.05;;
60088;SDS011;45961;53.574;55.878;2023-02-01T03:21:58;11.60;;;5.00;;
60088;SDS011;45961;53.574;55.878;2023-02-01T03:23:03;9.55;;;5.68;;
60088;SDS011;45961;53.574;55.878;2023-02-01T03:24:09;12.45;;;5.63;;
60088;SDS011;45961;53.574;55.878;2023-02-01T03:25:17;10.23;;;6.13;;
60088;SDS011;45961;53.574;55.878;2023-02-01T03:26:28;11.23;;;5.80;;
60088;SDS011;45961;53.574;55.878;2023-02-01T03:28:46;10.13;;;4.93;;
60088;SDS011;45961;53.574;55.878;2023-02-01T03:29:59;11.68;;;6.00;;
60088;SDS011;45961;53.574;55.878;2023-02-01T03:31:07;9.52;;;5.60;;
60088;SDS011;45961;53.574;55.878;2023-02-01T03:32:08;7.57;;;5.00;;
60088;SDS011;45961;53.574;55.878;2023-02-01T03:33:14;11.95;;;5.32;;
60088;SDS011;45961;53.574;55.878;2023-02-01T03:34:24;12.77;;;6.63;;
60088;SDS011;45961;53.574;55.878;2023-02-01T03:37:52;11.32;;;5.60;;
60088;SDS011;45961;53.574;55.878;2023-02-01T03:39:02;9.88;;;5.28;;
60088;SDS011;45961;53.574;55.878;2023-02-01T03:40:10;9.60;;;5.63;;
60088;SDS011;45961;53.574;55.878;2023-02-01T03:41:17;14.40;;;5.80;;
60088;SDS011;45961;53.574;55.878;2023-02-01T03:42:33;11.00;;;6.15;;
60088;SDS011;45961;53.574;55.878;2023-02-01T03:43:43;9.68;;;6.07;;
60088;SDS011;45961;53.574;55.878;2023-02-01T03:45:14;13.27;;;6.80;;
60088;SDS011;45961;53.574;55.878;2023-02-01T03:46:30;11.65;;;6.50;;
60088;SDS011;45961;53.574;55.878;2023-02-01T03:47:35;9.00;;;5.25;;
60088;SDS011;45961;53.574;55.878;2023-02-01T03:48:42;8.10;;;5.72;;
60088;SDS011;45961;53.574;55.878;2023-02-01T03:50:07;13.48;;;6.05;;
60088;SDS011;45961;53.574;55.878;2023-02-01T03:51:11;12.07;;;5.47;;
60088;SDS011;45961;53.574;55.878;2023-02-01T03:52:15;12.68;;;5.75;;
60088;SDS011;45961;53.574;55.878;2023-02-01T03:53:38;11.40;;;5.90;;
60088;SDS011;45961;53.574;55.878;2023-02-01T03:54:42;9.00;;;5.47;;
60088;SDS011;45961;53.574;55.878;2023-02-01T03:55:44;12.30;;;5.30;;
60088;SDS011;45961;53.574;55.878;2023-02-01T03:56:47;12.40;;;5.78;;
60088;SDS011;45961;53.574;55.878;2023-02-01T03:57:52;13.52;;;4.63;;
60088;SDS011;45961;53.574;55.878;2023-02-01T03:59:07;10.25;;;4.22;;
60088;SDS011;45961;53.574;55.878;2023-02-01T04:00:20;9.18;;;4.55;;
60088;SDS011;45961;53.574;55.878;2023-02-01T04:01:25;12.73;;;3.88;;
60088;SDS011;45961;53.574;55.878;2023-02-01T04:02:27;9.23;;;4.53;;
60088;SDS011;45961;53.574;55.878;2023-02-01T04:03:28;11.18;;;4.25;;
60088;SDS011;45961;53.574;55.878;2023-02-01T04:04:30;9.20;;;3.75;;
60088;SDS011;45961;53.574;55.878;2023-02-01T04:05:32;7.57;;;4.60;;
60088;SDS011;45961;53.574;55.878;2023-02-01T04:06:37;8.00;;;5.07;;
60088;SDS011;45961;53.574;55.878;2023-02-01T04:07:39;10.57;;;4.72;;
60088;SDS011;45961;53.574;55.878;2023-02-01T04:08:40;8.73;;;4.57;;
60088;SDS011;45961;53.574;55.878;2023-02-01T04:09:41;9.07;;;4.40;;
60088;SDS011;45961;53.574;55.878;2023-02-01T04:10:42;9.93;;;4.57;;
60088;SDS011;45961;53.574;55.878;2023-02-01T04:11:44;12.77;;;4.38;;
60088;SDS011;45961;53.574;55.878;2023-02-01T04:12:45;15.70;;;5.05;;
60088;SDS011;45961;53.574;55.878;2023-02-01T04:14:47;10.48;;;5.57;;
60088;SDS011;45961;53.574;55.878;2023-02-01T04:15:48;9.35;;;4.35;;
60088;SDS011;45961;53.574;55.878;2023-02-01T04:16:50;7.20;;;4.22;;
60088;SDS011;45961;53.574;55.878;2023-02-01T04:18:52;6.07;;;3.47;;
60088;SDS011;45961;53.574;55.878;2023-02-01T04:19:53;7.78;;;3.97;;
60088;SDS011;45961;53.574;55.878;2023-02-01T04:20:54;7.18;;;4.18;;
60088;SDS011;45961;53.574;55.878;2023-02-01T04:21:55;7.50;;;4.55;;
60088;SDS011;45961;53.574;55.878;2023-02-01T04:23:57;10.40;;;4.27;;
60088;SDS011;45961;53.574;55.878;2023-02-01T04:24:58;12.20;;;5.20;;
60088;SDS011;45961;53.574;55.878;2023-02-01T04:25:59;9.80;;;5.07;;
60088;SDS011;45961;53.574;55.878;2023-02-01T04:27:01;9.88;;;4.43;;
60088;SDS011;45961;53.574;55.878;2023-02-01T04:28:03;7.82;;;4.63;;
60088;SDS011;45961;53.574;55.878;2023-02-01T04:29:05;8.73;;;4.60;;
60088;SDS011;45961;53.574;55.878;2023-02-01T04:31:10;10.30;;;4.68;;
60088;SDS011;45961;53.574;55.878;2023-02-01T04:32:11;10.60;;;4.85;;
60088;SDS011;45961;53.574;55.878;2023-02-01T04:33:11;11.60;;;5.80;;
60088;SDS011;45961;53.574;55.878;2023-02-01T04:34:14;11.15;;;5.35;;
60088;SDS011;45961;53.574;55.878;2023-02-01T04:35:16;12.95;;;6.53;;
60088;SDS011;45961;53.574;55.878;2023-02-01T04:36:18;15.30;;;7.18;;
60088;SDS011;45961;53.574;55.878;2023-02-01T04:37:22;16.15;;;8.25;;
60088;SDS011;45961;53.574;55.878;2023-02-01T04:38:23;13.30;;;7.85;;
60088;SDS011;45961;53.574;55.878;2023-02-01T04:39:24;11.75;;;7.43;;
60088;SDS011;45961;53.574;55.878;2023-02-01T04:40:25;13.00;;;7.63;;
60088;SDS011;45961;53.574;55.878;2023-02-01T04:41:26;14.95;;;8.82;;
60088;SDS011;45961;53.574;55.878;2023-02-01T04:42:27;13.40;;;7.30;;
60088;SDS011;45961;53.574;55.878;2023-02-01T04:43:28;13.25;;;6.68;;
60088;SDS011;45961;53.574;55.878;2023-02-01T04:44:50;14.70;;;7.10;;
60088;SDS011;45961;53.574;55.878;2023-02-01T04:45:51;15.60;;;8.52;;
60088;SDS011;45961;53.574;55.878;2023-02-01T04:46:53;13.18;;;7.80;;
60088;SDS011;45961;53.574;55.878;2023-02-01T04:47:54;10.80;;;6.13;;
60088;SDS011;45961;53.574;55.878;2023-02-01T04:48:55;16.58;;;6.57;;
60088;SDS011;45961;53.574;55.878;2023-02-01T04:49:56;13.82;;;7.82;;
60088;SDS011;45961;53.574;55.878;2023-02-01T04:50:57;14.20;;;7.75;;
60088;SDS011;45961;53.574;55.878;2023-02-01T04:51:58;12.95;;;8.23;;
60088;SDS011;45961;53.574;55.878;2023-02-01T04:52:59;11.75;;;5.93;;
60088;SDS011;45961;53.574;55.878;2023-02-01T04:54:00;18.60;;;6.80;;
60088;SDS011;45961;53.574;55.878;2023-02-01T04:55:01;13.65;;;6.75;;
60088;SDS011;45961;53.574;55.878;2023-02-01T04:56:03;13.38;;;6.43;;
60088;SDS011;45961;53.574;55.878;2023-02-01T04:57:04;11.48;;;6.65;;
60088;SDS011;45961;53.574;55.878;2023-02-01T04:58:08;10.48;;;6.82;;
60088;SDS011;45961;53.574;55.878;2023-02-01T04:59:11;12.93;;;7.43;;
60088;SDS011;45961;53.574;55.878;2023-02-01T05:00:12;13.40;;;7.00;;
60088;SDS011;45961;53.574;55.878;2023-02-01T05:01:13;14.75;;;8.10;;
60088;SDS011;45961;53.574;55.878;2023-02-01T05:02:14;13.07;;;7.45;;
60088;SDS011;45961;53.574;55.878;2023-02-01T05:03:15;14.27;;;7.13;;
60088;SDS011;45961;53.574;55.878;2023-02-01T05:04:16;13.50;;;7.00;;
60088;SDS011;45961;53.574;55.878;2023-02-01T05:05:18;15.52;;;7.00;;
60088;SDS011;45961;53.574;55.878;2023-02-01T05:06:20;16.00;;;8.77;;
60088;SDS011;45961;53.574;55.878;2023-02-01T05:07:21;12.45;;;7.85;;
60088;SDS011;45961;53.574;55.878;2023-02-01T05:08:22;18.85;;;9.75;;
60088;SDS011;45961;53.574;55.878;2023-02-01T05:09:23;17.55;;;9.23;;
60088;SDS011;45961;53.574;55.878;2023-02-01T05:10:24;22.98;;;10.00;;
60088;SDS011;45961;53.574;55.878;2023-02-01T05:11:25;19.08;;;9.93;;
60088;SDS011;45961;53.574;55.878;2023-02-01T05:12:44;14.88;;;8.60;;
60088;SDS011;45961;53.574;55.878;2023-02-01T05:14:04;21.95;;;9.32;;
60088;SDS011;45961;53.574;55.878;2023-02-01T05:15:05;21.08;;;11.00;;
60088;SDS011;45961;53.574;55.878;2023-02-01T05:16:06;28.40;;;13.00;;
60088;SDS011;45961;53.574;55.878;2023-02-01T05:17:16;17.05;;;10.57;;
60088;SDS011;45961;53.574;55.878;2023-02-01T05:18:17;27.42;;;11.27;;
60088;SDS011;45961;53.574;55.878;2023-02-01T05:19:18;21.02;;;11.93;;
60088;SDS011;45961;53.574;55.878;2023-02-01T05:20:19;18.15;;;9.93;;
60088;SDS011;45961;53.574;55.878;2023-02-01T05:21:20;31.90;;;12.25;;
60088;SDS011;45961;53.574;55.878;2023-02-01T05:22:21;26.90;;;11.50;;
60088;SDS011;45961;53.574;55.878;2023-02-01T05:23:22;18.55;;;11.30;;
60088;SDS011;45961;53.574;55.878;2023-02-01T05:24:25;19.13;;;10.55;;
60088;SDS011;45961;53.574;55.878;2023-02-01T05:25:27;24.70;;;10.68;;
60088;SDS011;45961;53.574;55.878;2023-02-01T05:26:30;19.48;;;10.07;;
60088;SDS011;45961;53.574;55.878;2023-02-01T05:27:32;23.30;;;12.00;;
60088;SDS011;45961;53.574;55.878;2023-02-01T05:28:33;23.20;;;9.95;;
60088;SDS011;45961;53.574;55.878;2023-02-01T05:29:34;22.75;;;9.35;;
60088;SDS011;45961;53.574;55.878;2023-02-01T05:30:35;14.65;;;9.10;;
60088;SDS011;45961;53.574;55.878;2023-02-01T05:32:37;13.50;;;8.67;;
60088;SDS011;45961;53.574;55.878;2023-02-01T05:33:38;19.55;;;8.07;;
60088;SDS011;45961;53.574;55.878;2023-02-01T05:34:39;15.93;;;8.35;;
60088;SDS011;45961;53.574;55.878;2023-02-01T05:35:40;16.75;;;8.77;;
60088;SDS011;45961;53.574;55.878;2023-02-01T05:36:40;20.10;;;8.60;;
60088;SDS011;45961;53.574;55.878;2023-02-01T05:37:42;14.07;;;7.50;;
60088;SDS011;45961;53.574;55.878;2023-02-01T05:38:42;13.60;;;7.75;;
60088;SDS011;45961;53.574;55.878;2023-02-01T05:39:43;14.65;;;7.68;;
60088;SDS011;45961;53.574;55.878;2023-02-01T05:40:44;15.07;;;7.72;;
60088;SDS011;45961;53.574;55.878;2023-02-01T05:41:50;17.17;;;9.00;;
60088;SDS011;45961;53.574;55.878;2023-02-01T05:42:50;15.18;;;7.68;;
60088;SDS011;45961;53.574;55.878;2023-02-01T05:43:51;14.80;;;7.93;;
60088;SDS011;45961;53.574;55.878;2023-02-01T05:44:52;14.93;;;7.97;;
60088;SDS011;45961;53.574;55.878;2023-02-01T05:45:53;14.80;;;7.82;;
60088;SDS011;45961;53.574;55.878;2023-02-01T05:46:54;18.00;;;9.20;;
60088;SDS011;45961;53.574;55.878;2023-02-01T05:48:56;10.83;;;7.00;;
60088;SDS011;45961;53.574;55.878;2023-02-01T05:49:57;13.65;;;7.45;;
60088;SDS011;45961;53.574;55.878;2023-02-01T05:50:58;15.85;;;8.55;;
60088;SDS011;45961;53.574;55.878;2023-02-01T05:51:59;13.95;;;7.45;;
60088;SDS011;45961;53.574;55.878;2023-02-01T05:53:00;13.45;;;7.72;;
60088;SDS011;45961;53.574;55.878;2023-02-01T05:54:01;15.13;;;8.57;;
60088;SDS011;45961;53.574;55.878;2023-02-01T05:55:02;12.48;;;6.97;;
60088;SDS011;45961;53.574;55.878;2023-02-01T05:56:04;13.95;;;8.70;;
60088;SDS011;45961;53.574;55.878;2023-02-01T05:57:05;17.15;;;8.63;;
60088;SDS011;45961;53.574;55.878;2023-02-01T05:58:07;14.65;;;7.80;;
60088;SDS011;45961;53.574;55.878;2023-02-01T06:00:09;19.30;;;7.80;;
60088;SDS011;45961;53.574;55.878;2023-02-01T06:01:14;13.43;;;8.40;;
60088;SDS011;45961;53.574;55.878;2023-02-01T06:02:15;16.92;;;8.35;;
60088;SDS011;45961;53.574;55.878;2023-02-01T06:03:16;16.08;;;7.78;;
60088;SDS011;45961;53.574;55.878;2023-02-01T06:04:17;15.32;;;9.10;;
60088;SDS011;45961;53.574;55.878;2023-02-01T06:05:18;18.40;;;9.82;;
60088;SDS011;45961;53.574;55.878;2023-02-01T06:06:19;14.02;;;7.85;;
60088;SDS011;45961;53.574;55.878;2023-02-01T06:07:20;17.33;;;7.53;;
60088;SDS011;45961;53.574;55.878;2023-02-01T06:08:22;12.18;;;7.28;;
60088;SDS011;45961;53.574;55.878;2023-02-01T06:09:26;17.52;;;6.57;;
60088;SDS011;45961;53.574;55.878;2023-02-01T06:10:28;11.95;;;6.72;;
60088;SDS011;45961;53.574;55.878;2023-02-01T06:11:29;10.82;;;5.57;;
60088;SDS011;45961;53.574;55.878;2023-02-01T06:12:30;12.82;;;6.45;;
60088;SDS011;45961;53.574;55.878;2023-02-01T06:13:31;12.18;;;6.20;;
60088;SDS011;45961;53.574;55.878;2023-02-01T06:14:33;10.77;;;6.20;;
60088;SDS011;45961;53.574;55.878;2023-02-01T06:16:35;13.30;;;6.13;;
60088;SDS011;45961;53.574;55.878;2023-02-01T06:17:36;9.90;;;5.28;;
60088;SDS011;45961;53.574;55.878;2023-02-01T06:18:39;10.57;;;5.30;;
60088;SDS011;45961;53.574;55.878;2023-02-01T06:19:39;12.27;;;5.78;;
60088;SDS011;45961;53.574;55.878;2023-02-01T06:20:41;13.00;;;5.70;;
60088;SDS011;45961;53.574;55.878;2023-02-01T06:21:41;11.80;;;6.38;;
60088;SDS011;45961;53.574;55.878;2023-02-01T06:22:43;13.18;;;6.65;;
60088;SDS011;45961;53.574;55.878;2023-02-01T06:23:44;9.05;;;5.63;;
60088;SDS011;45961;53.574;55.878;2023-02-01T06:24:44;11.45;;;6.30;;
60088;SDS011;45961;53.574;55.878;2023-02-01T06:25:45;13.90;;;6.15;;
60088;SDS011;45961;53.574;55.878;2023-02-01T06:26:46;10.10;;;5.72;;
60088;SDS011;45961;53.574;55.878;2023-02-01T06:27:47;11.13;;;6.25;;
60088;SDS011;45961;53.574;55.878;2023-02-01T06:28:49;8.50;;;4.63;;
60088;SDS011;45961;53.574;55.878;2023-02-01T06:29:50;11.23;;;6.00;;
60088;SDS011;45961;53.574;55.878;2023-02-01T06:30:53;9.65;;;6.07;;
60088;SDS011;45961;53.574;55.878;2023-02-01T06:31:54;11.80;;;5.28;;
60088;SDS011;45961;53.574;55.878;2023-02-01T06:32:55;9.00;;;5.85;;
60088;SDS011;45961;53.574;55.878;2023-02-01T06:33:56;9.88;;;6.18;;
60088;SDS011;45961;53.574;55.878;2023-02-01T06:34:57;8.63;;;5.65;;
60088;SDS011;45961;53.574;55.878;2023-02-01T06:36:00;9.30;;;5.50;;
60088;SDS011;45961;53.574;55.878;2023-02-01T06:37:02;12.40;;;6.60;;
60088;SDS011;45961;53.574;55.878;2023-02-01T06:38:03;12.32;;;5.75;;
60088;SDS011;45961;53.574;55.878;2023-02-01T06:39:04;11.60;;;6.05;;
60088;SDS011;45961;53.574;55.878;2023-02-01T06:40:05;10.65;;;6.00;;
60088;SDS011;45961;53.574;55.878;2023-02-01T06:42:09;11.75;;;5.35;;
60088;SDS011;45961;53.574;55.878;2023-02-01T06:43:10;9.27;;;6.07;;
60088;SDS011;45961;53.574;55.878;2023-02-01T06:44:11;12.82;;;5.28;;
60088;SDS011;45961;53.574;55.878;2023-02-01T06:45:12;11.90;;;5.55;;
60088;SDS011;45961;53.574;55.878;2023-02-01T06:46:13;12.40;;;6.00;;
60088;SDS011;45961;53.574;55.878;2023-02-01T06:47:14;11.38;;;6.72;;
60088;SDS011;45961;53.574;55.878;2023-02-01T06:48:15;10.63;;;5.63;;
60088;SDS011;45961;53.574;55.878;2023-02-01T06:49:16;10.18;;;5.45;;
60088;SDS011;45961;53.574;55.878;2023-02-01T06:50:18;15.13;;;7.57;;
60088;SDS011;45961;53.574;55.878;2023-02-01T06:51:21;17.45;;;6.15;;
60088;SDS011;45961;53.574;55.878;2023-02-01T06:52:24;14.25;;;7.32;;
60088;SDS011;45961;53.574;55.878;2023-02-01T06:53:25;12.73;;;7.25;;
60088;SDS011;45961;53.574;55.878;2023-02-01T06:54:27;11.70;;;7.22;;
60088;SDS011;45961;53.574;55.878;2023-02-01T06:55:29;13.10;;;6.70;;
60088;SDS011;45961;53.574;55.878;2023-02-01T06:57:31;17.30;;;7.50;;
60088;SDS011;45961;53.574;55.878;2023-02-01T06:58:34;16.52;;;8.05;;
60088;SDS011;45961;53.574;55.878;2023-02-01T06:59:35;20.08;;;8.50;;
60088;SDS011;45961;53.574;55.878;2023-02-01T07:00:36;18.10;;;8.65;;
60088;SDS011;45961;53.574;55.878;2023-02-01T07:01:37;16.95;;;9.27;;
60088;SDS011;45961;53.574;55.878;2023-02-01T07:02:38;16.08;;;8.70;;
60088;SDS011;45961;53.574;55.878;2023-02-01T07:04:41;14.82;;;8.13;;
60088;SDS011;45961;53.574;55.878;2023-02-01T07:05:42;17.52;;;8.50;;